Time;durP1;ratioP1;P1;durP2;ratioP2;P2;SDS_P1;SDS_P2;PMS_P1;PMS_P2;Temp;Humidity;BMP_temperature;BMP_pressure;BME280_temperature;BME280_humidity;BME280_pressure;Samples;Min_cycle;Max_cycle;Signal;HPM_P1;HPM_P2
2022/03/31 04:12:42;;;;;;;3.30;3.10;;;6.70;99.90;;;;;;5072766;23;20281;-64
2022/03/31 04:15:13;;;;;;;3.50;3.30;;;6.70;99.90;;;;;;4994976;28;20210;-64
2022/03/31 04:17:42;;;;;;;3.70;3.50;;;6.70;99.90;;;;;;4995536;28;20210;-63
2022/03/31 04:20:10;;;;;;;3.45;3.25;;;6.70;99.90;;;;;;4996159;28;20250;-63
2022/03/31 04:22:37;;;;;;;3.45;3.25;;;6.70;99.90;;;;;;4995151;28;20344;-63
2022/03/31 04:25:05;;;;;;;3.30;3.10;;;6.80;99.90;;;;;;4995714;28;20266;-63
2022/03/31 04:27:34;;;;;;;3.38;3.08;;;6.70;99.90;;;;;;4994794;28;20202;-63
2022/03/31 04:30:03;;;;;;;2.88;2.78;;;6.70;99.90;;;;;;4994408;28;20535;-63
2022/03/31 04:32:30;;;;;;;3.45;3.25;;;6.80;99.90;;;;;;4993565;28;20275;-63
2022/03/31 04:34:57;;;;;;;3.38;3.17;;;6.70;99.90;;;;;;4993582;28;20206;-63
2022/03/31 04:37:24;;;;;;;3.38;3.15;;;6.70;99.90;;;;;;4993603;28;20254;-63
2022/03/31 04:39:51;;;;;;;4.63;4.28;;;6.70;99.90;;;;;;4994030;28;20199;-63
2022/03/31 04:42:17;;;;;;;4.63;4.25;;;6.70;99.90;;;;;;4993803;28;20241;-63
2022/03/31 04:44:44;;;;;;;4.43;4.13;;;6.70;99.90;;;;;;4993712;28;20205;-63
2022/03/31 04:47:13;;;;;;;4.18;3.83;;;6.60;99.90;;;;;;4997784;28;20286;-63
2022/03/31 04:49:39;;;;;;;5.30;4.82;;;6.70;99.90;;;;;;4997219;28;20214;-64
2022/03/31 04:52:07;;;;;;;4.20;3.90;;;6.60;99.90;;;;;;4996968;28;20723;-63
2022/03/31 04:54:34;;;;;;;3.92;3.72;;;6.60;99.90;;;;;;4997399;28;20229;-63
2022/03/31 04:57:01;;;;;;;4.72;4.00;;;6.60;99.90;;;;;;4996563;28;20788;-63
2022/03/31 04:59:27;;;;;;;4.55;4.25;;;6.60;99.90;;;;;;4996869;28;20301;-63
2022/03/31 05:01:54;;;;;;;4.68;4.28;;;6.50;99.90;;;;;;4996768;28;20226;-63
2022/03/31 05:04:22;;;;;;;3.85;3.60;;;6.50;99.90;;;;;;4996406;28;20202;-63
2022/03/31 05:06:49;;;;;;;4.07;3.78;;;6.50;99.90;;;;;;4996474;28;20701;-63
2022/03/31 05:09:16;;;;;;;3.97;3.67;;;6.50;99.90;;;;;;4996231;28;20614;-63
2022/03/31 05:11:43;;;;;;;3.90;3.60;;;6.50;99.90;;;;;;4996187;28;20229;-63
2022/03/31 05:14:10;;;;;;;3.70;3.50;;;6.50;99.90;;;;;;4996524;28;20293;-63
2022/03/31 05:16:37;;;;;;;3.53;3.33;;;6.50;99.90;;;;;;4996401;28;20213;-63
2022/03/31 05:19:04;;;;;;;3.38;3.17;;;6.50;99.90;;;;;;4996448;28;20199;-63
2022/03/31 05:21:32;;;;;;;3.90;3.63;;;6.50;99.90;;;;;;4996557;28;20313;-63
2022/03/31 05:23:59;;;;;;;4.38;4.07;;;6.50;99.90;;;;;;4996444;28;20206;-63
2022/03/31 05:26:26;;;;;;;4.07;3.80;;;6.50;99.90;;;;;;4996432;28;20232;-63
2022/03/31 05:28:53;;;;;;;4.00;3.70;;;6.50;99.90;;;;;;4996093;28;20750;-64
2022/03/31 05:31:20;;;;;;;3.95;3.70;;;6.50;99.90;;;;;;4995936;28;20693;-63
2022/03/31 05:33:47;;;;;;;4.72;4.32;;;6.50;99.90;;;;;;4995823;28;20685;-63
2022/03/31 05:36:14;;;;;;;5.03;4.63;;;6.50;99.90;;;;;;4996221;28;20203;-64
2022/03/31 05:38:42;;;;;;;4.40;4.07;;;6.50;99.90;;;;;;4995693;28;20310;-63
2022/03/31 05:41:09;;;;;;;4.03;3.72;;;6.50;99.90;;;;;;4995828;28;20570;-63
2022/03/31 05:43:36;;;;;;;5.10;4.68;;;6.60;99.90;;;;;;4995665;28;20692;-63
2022/03/31 05:46:03;;;;;;;4.88;4.47;;;6.60;99.90;;;;;;4995499;28;20757;-64
2022/03/31 05:48:30;;;;;;;6.45;5.30;;;6.60;99.90;;;;;;4995794;28;20207;-63
2022/03/31 05:50:56;;;;;;;5.35;4.85;;;6.60;99.90;;;;;;4995474;28;20231;-64
2022/03/31 05:53:23;;;;;;;7.13;5.95;;;6.70;99.90;;;;;;4995571;28;20629;-63
2022/03/31 05:55:52;;;;;;;6.93;6.22;;;6.70;99.90;;;;;;4995593;28;20285;-63
2022/03/31 05:58:19;;;;;;;8.70;6.70;;;6.80;99.90;;;;;;4994706;28;20223;-63
2022/03/31 06:00:46;;;;;;;8.35;7.30;;;6.80;99.90;;;;;;4995577;28;20253;-63
2022/03/31 06:03:13;;;;;;;7.53;6.18;;;6.80;99.90;;;;;;4995364;28;20248;-63
2022/03/31 06:05:39;;;;;;;7.90;6.55;;;6.90;99.90;;;;;;4995510;28;20294;-64
2022/03/31 06:08:07;;;;;;;6.13;5.53;;;7.00;99.90;;;;;;4996181;28;20213;-63
2022/03/31 06:10:34;;;;;;;6.65;6.05;;;7.20;99.90;;;;;;4995390;28;20682;-64
2022/03/31 06:13:02;;;;;;;5.43;4.95;;;7.30;99.90;;;;;;4995007;28;20694;-63
2022/03/31 06:15:29;;;;;;;5.68;5.18;;;7.30;99.90;;;;;;4995467;28;20206;-63
2022/03/31 06:17:56;;;;;;;5.70;5.13;;;7.40;99.90;;;;;;4995442;28;20562;-63
2022/03/31 06:20:23;;;;;;;5.63;5.13;;;7.40;99.90;;;;;;4995339;28;20293;-65
2022/03/31 06:22:50;;;;;;;5.78;5.28;;;7.50;99.90;;;;;;4995279;28;20294;-63
2022/03/31 06:25:17;;;;;;;5.75;5.25;;;7.60;99.90;;;;;;4995327;28;20210;-63
2022/03/31 06:27:46;;;;;;;5.03;4.63;;;7.70;99.90;;;;;;4995179;28;20199;-64
2022/03/31 06:30:15;;;;;;;4.53;4.25;;;7.90;99.90;;;;;;4995178;28;20246;-64
2022/03/31 06:32:42;;;;;;;5.07;4.68;;;7.90;99.90;;;;;;4995069;28;20229;-63
2022/03/31 06:35:14;;;;;;;4.70;4.30;;;8.00;99.90;;;;;;4995116;28;20293;-63
2022/03/31 06:37:41;;;;;;;5.05;4.65;;;8.00;99.90;;;;;;4994909;28;20207;-63
2022/03/31 06:40:12;;;;;;;5.50;5.00;;;8.00;99.90;;;;;;4994966;28;20309;-63
2022/03/31 06:42:40;;;;;;;6.28;5.55;;;8.00;99.90;;;;;;4994612;28;20591;-63
2022/03/31 06:45:12;;;;;;;7.22;5.85;;;8.00;99.90;;;;;;4994876;28;20211;-64
2022/03/31 06:47:40;;;;;;;7.45;6.72;;;8.00;99.90;;;;;;4995168;28;20190;-64
2022/03/31 06:50:08;;;;;;;11.80;9.55;;;8.00;99.90;;;;;;4994408;28;20696;-64
2022/03/31 06:52:35;;;;;;;14.52;9.00;;;8.00;99.90;;;;;;4994685;28;20229;-64
2022/03/31 06:55:02;;;;;;;10.77;9.05;;;8.20;99.90;;;;;;4994681;28;20198;-65
2022/03/31 06:57:29;;;;;;;11.48;9.43;;;8.40;99.90;;;;;;4995141;28;20219;-65
2022/03/31 06:59:56;;;;;;;10.65;8.77;;;8.50;99.90;;;;;;4994887;28;20234;-66
2022/03/31 07:02:23;;;;;;;11.07;9.27;;;8.80;99.90;;;;;;4994212;28;20310;-65
2022/03/31 07:04:51;;;;;;;9.43;7.70;;;8.90;99.90;;;;;;4994505;28;20210;-66
2022/03/31 07:07:19;;;;;;;10.77;7.53;;;9.10;99.90;;;;;;4994508;28;20198;-66
2022/03/31 07:09:45;;;;;;;9.48;8.30;;;9.20;99.90;;;;;;4994286;28;20198;-66
2022/03/31 07:12:12;;;;;;;9.32;7.20;;;9.30;99.90;;;;;;4994207;28;20262;-65
2022/03/31 07:14:39;;;;;;;9.13;7.03;;;9.50;99.90;;;;;;4994433;28;20281;-65
2022/03/31 07:17:06;;;;;;;8.82;7.43;;;9.60;99.90;;;;;;4994337;28;20209;-65
2022/03/31 07:19:34;;;;;;;7.03;6.32;;;9.90;99.90;;;;;;4994424;28;20218;-66
2022/03/31 07:22:02;;;;;;;8.77;6.85;;;10.60;99.90;;;;;;4994355;28;20273;-66
2022/03/31 07:24:29;;;;;;;9.82;8.55;;;11.20;99.90;;;;;;4994349;28;20202;-66
2022/03/31 07:26:56;;;;;;;12.73;8.05;;;11.50;99.90;;;;;;4994350;28;20205;-66
2022/03/31 07:29:23;;;;;;;10.10;7.95;;;11.90;99.90;;;;;;4994188;28;20737;-66
2022/03/31 07:31:50;;;;;;;9.00;8.10;;;12.60;99.90;;;;;;4994746;28;20273;-66
2022/03/31 07:34:17;;;;;;;9.82;7.40;;;13.30;99.90;;;;;;4993865;28;20653;-66
2022/03/31 07:36:44;;;;;;;12.30;7.55;;;14.00;99.90;;;;;;4993866;28;20297;-66
2022/03/31 07:39:12;;;;;;;6.80;6.15;;;14.70;99.90;;;;;;4994093;28;20233;-66
2022/03/31 07:41:39;;;;;;;6.75;6.03;;;15.10;99.90;;;;;;4994108;28;20228;-66
2022/03/31 07:44:06;;;;;;;9.43;6.93;;;15.10;99.90;;;;;;4994271;28;20240;-66
2022/03/31 07:46:34;;;;;;;10.82;7.70;;;15.60;99.90;;;;;;4994270;28;20209;-66
2022/03/31 07:49:01;;;;;;;9.93;7.28;;;16.40;92.50;;;;;;4994304;28;20225;-66
2022/03/31 07:51:29;;;;;;;10.10;8.18;;;17.10;79.00;;;;;;4994114;28;20317;-66
2022/03/31 07:53:56;;;;;;;8.95;6.97;;;17.40;74.50;;;;;;4993854;28;20302;-66
2022/03/31 07:56:24;;;;;;;7.30;6.45;;;17.40;69.40;;;;;;4994233;28;20203;-66
2022/03/31 07:58:51;;;;;;;6.43;5.78;;;17.20;66.30;;;;;;4994128;28;20313;-66
2022/03/31 08:01:18;;;;;;;10.38;6.40;;;16.70;67.00;;;;;;4994274;28;20333;-67
2022/03/31 08:03:45;;;;;;;6.35;5.60;;;16.10;72.00;;;;;;4994164;28;20202;-66
2022/03/31 08:06:12;;;;;;;6.25;4.65;;;15.70;76.80;;;;;;4994140;28;20285;-66
2022/03/31 08:08:38;;;;;;;5.10;4.70;;;15.90;93.70;;;;;;4996027;28;20285;-66
2022/03/31 08:11:06;;;;;;;5.97;3.95;;;16.60;75.90;;;;;;4995701;28;20228;-66
2022/03/31 08:13:34;;;;;;;4.93;4.50;;;17.10;74.10;;;;;;4995314;28;20206;-65
2022/03/31 08:16:01;;;;;;;8.65;5.50;;;17.50;69.30;;;;;;4995547;28;20207;-65
2022/03/31 08:18:31;;;;;;;5.10;4.70;;;18.20;59.70;;;;;;4995504;28;20222;-65
2022/03/31 08:20:58;;;;;;;3.58;3.38;;;18.30;60.90;;;;;;4997585;28;20309;-65
2022/03/31 08:23:26;;;;;;;6.18;4.78;;;18.50;60.20;;;;;;4999838;28;20202;-65
2022/03/31 08:25:53;;;;;;;7.32;5.40;;;18.10;55.70;;;;;;5000044;28;20203;-64
2022/03/31 08:28:20;;;;;;;6.63;5.00;;;17.30;57.40;;;;;;4999647;28;20209;-65
2022/03/31 08:30:49;;;;;;;7.57;4.07;;;16.60;58.80;;;;;;5000145;28;20697;-65
2022/03/31 08:33:16;;;;;;;3.20;3.00;;;16.20;66.60;;;;;;4998145;28;20205;-65
2022/03/31 08:35:43;;;;;;;3.35;3.00;;;16.40;71.40;;;;;;4998856;28;20688;-64
2022/03/31 08:38:09;;;;;;;7.38;5.05;;;16.40;73.30;;;;;;4998543;28;20310;-65
2022/03/31 08:40:37;;;;;;;4.85;3.95;;;16.10;61.00;;;;;;4999608;28;20213;-66
2022/03/31 08:43:04;;;;;;;3.90;3.50;;;16.00;63.50;;;;;;5000157;28;20203;-66
2022/03/31 08:45:36;;;;;;;4.45;4.05;;;15.80;61.90;;;;;;4997196;28;20202;-66
2022/03/31 08:48:05;;;;;;;6.38;4.60;;;15.40;64.40;;;;;;4997002;28;20190;-66
2022/03/31 08:50:35;;;;;;;7.50;5.28;;;14.90;70.70;;;;;;4996944;28;20202;-66
2022/03/31 08:53:02;;;;;;;5.55;4.57;;;14.50;72.70;;;;;;4996756;28;20686;-66
2022/03/31 08:55:29;;;;;;;8.40;4.72;;;14.20;85.60;;;;;;4996877;28;20586;-66
2022/03/31 08:57:56;;;;;;;4.10;3.65;;;13.90;92.80;;;;;;4997208;28;20223;-66
2022/03/31 09:00:24;;;;;;;5.57;5.00;;;13.80;96.40;;;;;;4996560;28;20213;-66
2022/03/31 09:02:56;;;;;;;5.82;4.93;;;13.60;98.60;;;;;;4996835;28;20202;-66
2022/03/31 09:05:25;;;;;;;12.82;6.25;;;13.30;99.90;;;;;;4996748;28;20202;-66
2022/03/31 09:07:54;;;;;;;7.53;5.82;;;13.10;99.90;;;;;;4996693;28;20209;-66
2022/03/31 09:10:31;;;;;;;12.32;6.05;;;12.90;99.90;;;;;;4996636;28;20209;-66
2022/03/31 09:13:00;;;;;;;8.25;6.40;;;12.60;99.90;;;;;;4998092;28;20217;-65
2022/03/31 09:15:27;;;;;;;8.95;6.55;;;12.30;99.90;;;;;;4998271;28;20230;-65
2022/03/31 09:17:55;;;;;;;7.70;6.25;;;12.00;99.90;;;;;;4996439;28;20213;-65
2022/03/31 09:20:24;;;;;;;13.52;5.60;;;11.50;99.90;;;;;;4996552;28;20310;-66
2022/03/31 09:22:51;;;;;;;6.82;5.82;;;11.20;99.90;;;;;;4996404;28;20213;-65
2022/03/31 09:25:29;;;;;;;7.03;5.68;;;11.00;99.90;;;;;;4996043;28;20774;-65
2022/03/31 09:27:58;;;;;;;5.20;4.70;;;10.80;99.90;;;;;;4995996;28;20253;-65
2022/03/31 09:30:25;;;;;;;5.95;5.35;;;10.90;99.90;;;;;;4996244;28;20203;-65
2022/03/31 09:32:53;;;;;;;5.50;4.60;;;11.00;99.90;;;;;;4994912;28;20589;-65
2022/03/31 09:35:25;;;;;;;4.47;4.05;;;11.10;99.90;;;;;;4996381;28;20198;-65
2022/03/31 09:37:55;;;;;;;4.43;4.03;;;11.20;99.90;;;;;;4996519;28;20211;-66
2022/03/31 09:40:23;;;;;;;4.22;3.80;;;11.30;99.90;;;;;;4996850;28;20202;-66
2022/03/31 09:42:57;;;;;;;3.83;3.53;;;11.40;99.90;;;;;;4996280;28;20293;-66
2022/03/31 09:45:24;;;;;;;5.30;4.15;;;11.60;99.90;;;;;;4996010;28;20202;-66
2022/03/31 09:47:51;;;;;;;4.65;3.50;;;11.60;99.90;;;;;;4996146;28;20206;-66
2022/03/31 09:50:20;;;;;;;3.97;3.67;;;11.70;99.90;;;;;;4995587;28;20203;-66
2022/03/31 09:52:49;;;;;;;3.50;3.22;;;11.70;99.90;;;;;;4995356;28;20273;-66
2022/03/31 09:55:18;;;;;;;5.18;3.92;;;11.80;99.90;;;;;;4995254;28;20298;-66
2022/03/31 09:57:48;;;;;;;6.25;4.38;;;11.90;99.90;;;;;;4995500;28;20230;-66
2022/03/31 10:00:17;;;;;;;8.10;4.50;;;12.10;99.90;;;;;;4995488;28;20223;-66
2022/03/31 10:02:45;;;;;;;6.88;4.78;;;12.30;99.90;;;;;;4995810;28;20227;-67
2022/03/31 10:05:15;;;;;;;5.10;3.80;;;12.50;99.90;;;;;;4995853;28;20210;-66
2022/03/31 10:07:45;;;;;;;7.38;4.40;;;12.60;99.90;;;;;;4995749;28;20206;-67
2022/03/31 10:10:13;;;;;;;5.28;3.63;;;12.70;99.90;;;;;;4995954;28;20202;-66
2022/03/31 10:12:44;;;;;;;5.07;3.90;;;12.80;99.90;;;;;;4995453;28;20230;-66
2022/03/31 10:15:17;;;;;;;6.03;4.18;;;12.80;98.90;;;;;;4995681;28;20210;-65
2022/03/31 10:17:47;;;;;;;3.60;3.17;;;12.80;99.90;;;;;;4995645;28;20191;-66
2022/03/31 10:20:17;;;;;;;7.82;3.60;;;12.80;99.40;;;;;;4994956;28;20238;-66
2022/03/31 10:25:41;;;;;;;3.80;3.38;;;12.40;97.00;;;;;;4995617;28;20182;-67
2022/03/31 10:28:12;;;;;;;5.38;4.07;;;12.20;99.90;;;;;;4995232;28;20211;-66
2022/03/31 10:30:40;;;;;;;5.07;3.38;;;12.20;99.90;;;;;;4995253;28;20286;-66
2022/03/31 10:33:09;;;;;;;5.90;3.50;;;12.10;99.90;;;;;;4994941;28;20723;-66
2022/03/31 10:35:37;;;;;;;3.38;3.08;;;12.00;99.90;;;;;;4995051;28;20206;-66
2022/03/31 10:38:16;;;;;;;5.35;3.70;;;12.00;99.90;;;;;;4995118;28;20229;-67
2022/03/31 10:40:46;;;;;;;4.40;4.00;;;12.10;99.90;;;;;;4994935;28;20297;-67
2022/03/31 10:43:21;;;;;;;6.95;4.63;;;12.20;99.90;;;;;;4994612;28;20206;-66
2022/03/31 10:45:48;;;;;;;4.75;3.92;;;12.10;99.90;;;;;;4995138;28;20207;-66
2022/03/31 10:48:18;;;;;;;6.50;4.68;;;12.10;99.90;;;;;;4994617;28;20678;-67
2022/03/31 10:50:45;;;;;;;5.00;3.47;;;12.20;99.90;;;;;;4994443;28;20261;-67
2022/03/31 10:53:12;;;;;;;4.97;3.83;;;12.40;99.90;;;;;;4994953;28;20209;-67
2022/03/31 10:55:41;;;;;;;3.65;3.28;;;12.50;99.90;;;;;;4994637;28;20764;-66
2022/03/31 10:58:20;;;;;;;4.13;3.70;;;12.70;99.90;;;;;;4994891;28;20198;-66
2022/03/31 11:00:49;;;;;;;3.53;3.22;;;12.80;99.90;;;;;;4994743;28;20222;-66
2022/03/31 11:03:18;;;;;;;3.35;2.70;;;13.00;99.90;;;;;;4994618;28;20217;-66
2022/03/31 11:05:45;;;;;;;7.43;3.47;;;12.90;99.90;;;;;;4994860;28;20210;-66
2022/03/31 11:08:16;;;;;;;5.13;3.30;;;12.90;99.90;;;;;;4994679;28;20205;-66
2022/03/31 11:10:46;;;;;;;4.40;3.78;;;12.80;99.90;;;;;;4994095;28;20693;-66
2022/03/31 11:13:15;;;;;;;4.20;3.80;;;12.70;99.90;;;;;;4994289;28;20214;-67
2022/03/31 11:15:44;;;;;;;3.88;3.00;;;12.70;99.90;;;;;;4994401;28;20242;-67
2022/03/31 11:18:11;;;;;;;5.40;3.63;;;12.90;99.90;;;;;;4994339;28;20234;-66
2022/03/31 11:20:38;;;;;;;7.05;3.60;;;13.10;99.90;;;;;;4994258;28;20226;-66
2022/03/31 11:23:06;;;;;;;3.30;3.00;;;13.30;99.90;;;;;;4994382;28;20698;-66
2022/03/31 11:25:34;;;;;;;3.42;3.22;;;13.40;99.90;;;;;;4994313;28;20214;-66
2022/03/31 11:28:09;;;;;;;3.85;3.22;;;13.40;99.90;;;;;;4994349;28;20212;-66
2022/03/31 11:30:37;;;;;;;3.15;2.75;;;13.40;99.90;;;;;;4994937;28;20192;-65
2022/03/31 11:33:05;;;;;;;3.33;3.03;;;13.40;99.90;;;;;;4993946;28;20686;-66
2022/03/31 11:35:32;;;;;;;2.85;2.65;;;13.30;99.90;;;;;;4994339;28;20198;-66
2022/03/31 11:38:01;;;;;;;2.65;2.15;;;13.20;96.50;;;;;;4994093;28;20274;-66
2022/03/31 11:40:29;;;;;;;2.30;2.20;;;12.90;94.00;;;;;;4993899;28;20223;-65
2022/03/31 11:42:58;;;;;;;2.38;2.17;;;12.70;96.50;;;;;;4993964;28;20198;-66
2022/03/31 11:45:31;;;;;;;2.15;2.05;;;12.40;99.90;;;;;;4993977;28;20571;-66
2022/03/31 11:48:01;;;;;;;2.25;2.15;;;12.30;99.90;;;;;;4993968;28;20282;-66
2022/03/31 11:50:30;;;;;;;2.53;2.20;;;12.00;99.90;;;;;;4995727;28;20183;-65
2022/03/31 11:52:58;;;;;;;3.80;2.60;;;11.70;99.90;;;;;;4998321;28;20207;-64
2022/03/31 11:55:25;;;;;;;4.47;2.85;;;11.40;99.90;;;;;;4998874;28;20194;-64
2022/03/31 11:57:57;;;;;;;4.55;3.15;;;11.00;99.90;;;;;;5002019;28;20253;-64
2022/03/31 12:00:26;;;;;;;5.53;3.53;;;10.50;99.90;;;;;;5002434;28;20226;-65
2022/03/31 12:03:00;;;;;;;3.05;2.83;;;9.80;99.90;;;;;;5002894;28;20654;-65
2022/03/31 12:05:28;;;;;;;6.80;2.97;;;9.30;99.90;;;;;;5002007;28;20190;-65
2022/03/31 12:07:55;;;;;;;3.63;3.13;;;8.90;99.90;;;;;;5002497;28;20212;-65
2022/03/31 12:10:23;;;;;;;4.93;2.80;;;8.60;99.90;;;;;;5002185;28;20194;-65
2022/03/31 12:12:53;;;;;;;3.50;2.50;;;8.30;99.90;;;;;;5001797;28;20261;-65
2022/03/31 12:15:23;;;;;;;3.08;2.28;;;8.10;99.90;;;;;;5002031;28;20614;-65
2022/03/31 12:18:06;;;;;;;3.33;1.85;;;8.00;99.90;;;;;;5002369;28;20203;-65
2022/03/31 12:20:35;;;;;;;1.83;1.73;;;8.00;99.90;;;;;;5000820;28;20209;-66
2022/03/31 12:23:02;;;;;;;2.00;1.85;;;8.10;99.90;;;;;;4997595;28;20294;-65
2022/03/31 12:25:33;;;;;;;2.50;2.10;;;8.10;99.90;;;;;;4997572;28;20207;-65
2022/03/31 12:28:04;;;;;;;4.00;2.13;;;8.10;99.90;;;;;;4997469;28;20213;-65
2022/03/31 12:30:41;;;;;;;4.35;2.00;;;8.00;99.90;;;;;;4997148;28;20202;-66
2022/03/31 12:33:24;;;;;;;3.20;2.58;;;7.90;99.90;;;;;;4997318;28;20209;-65
2022/03/31 12:36:03;;;;;;;2.78;2.10;;;7.80;99.90;;;;;;4997357;28;20199;-65
2022/03/31 12:38:39;;;;;;;2.63;2.40;;;7.80;99.90;;;;;;4996991;28;20697;-65
2022/03/31 12:41:15;;;;;;;4.00;2.45;;;7.90;99.90;;;;;;4997345;28;20224;-66
2022/03/31 12:43:42;;;;;;;4.80;3.33;;;8.00;99.90;;;;;;4996852;28;20639;-65
2022/03/31 12:46:17;;;;;;;9.18;3.60;;;8.00;99.90;;;;;;4997049;28;20213;-67
2022/03/31 12:49:08;;;;;;;5.15;3.08;;;8.10;99.90;;;;;;4997030;28;20256;-66
2022/03/31 12:51:48;;;;;;;8.38;3.55;;;8.20;99.90;;;;;;4993400;28;20222;-65
2022/03/31 12:54:23;;;;;;;4.32;3.42;;;8.20;99.90;;;;;;4997038;28;20270;-65
2022/03/31 12:56:51;;;;;;;4.70;3.03;;;8.30;99.90;;;;;;4996963;28;20273;-65
2022/03/31 12:59:19;;;;;;;5.43;3.20;;;8.30;99.90;;;;;;4996794;28;20321;-65
2022/03/31 13:01:57;;;;;;;4.68;3.08;;;8.30;99.90;;;;;;4996921;28;20223;-65
2022/03/31 13:04:25;;;;;;;5.53;3.08;;;8.20;99.90;;;;;;4996918;28;20202;-65
2022/03/31 13:06:53;;;;;;;3.35;3.05;;;8.20;99.90;;;;;;4996650;28;20293;-63
2022/03/31 13:09:20;;;;;;;5.25;2.83;;;8.10;99.90;;;;;;4996761;28;20198;-63
2022/03/31 13:11:49;;;;;;;3.28;3.00;;;8.10;99.90;;;;;;4996837;28;20309;-64
2022/03/31 13:14:16;;;;;;;4.95;3.03;;;8.00;99.90;;;;;;4997730;28;20746;-65
2022/03/31 13:16:44;;;;;;;7.88;5.05;;;8.00;99.90;;;;;;4996926;28;20631;-65
2022/03/31 13:19:11;;;;;;;14.35;7.68;;;8.10;99.90;;;;;;4996461;28;20202;-66
2022/03/31 13:21:39;;;;;;;9.25;7.10;;;8.00;99.90;;;;;;4996172;28;20731;-67
2022/03/31 13:24:07;;;;;;;7.82;6.30;;;8.00;99.90;;;;;;4996388;28;20208;-66
2022/03/31 13:26:36;;;;;;;7.47;5.85;;;8.10;99.90;;;;;;4996255;28;20214;-65
2022/03/31 13:29:05;;;;;;;6.25;5.07;;;8.10;99.90;;;;;;4996382;28;20198;-66
2022/03/31 13:31:35;;;;;;;5.60;4.93;;;8.10;99.90;;;;;;4997927;28;20230;-66
2022/03/31 13:34:02;;;;;;;5.40;4.10;;;8.10;99.90;;;;;;5000857;28;20230;-66
2022/03/31 13:36:30;;;;;;;4.15;3.70;;;8.00;99.90;;;;;;5001066;28;20238;-66
2022/03/31 13:38:58;;;;;;;3.42;3.13;;;8.00;99.90;;;;;;4999968;28;20206;-66
2022/03/31 13:41:27;;;;;;;4.05;3.05;;;8.00;99.90;;;;;;4999942;28;20561;-66
2022/03/31 13:43:54;;;;;;;2.75;2.55;;;7.90;99.90;;;;;;5000112;28;20746;-66
2022/03/31 13:46:22;;;;;;;2.60;2.50;;;8.00;99.90;;;;;;5001118;28;20222;-66
2022/03/31 13:48:49;;;;;;;2.63;2.53;;;7.90;99.90;;;;;;4999523;28;20206;-66
2022/03/31 13:51:16;;;;;;;2.25;2.15;;;8.00;99.90;;;;;;5000649;28;20218;-66
2022/03/31 13:53:48;;;;;;;1.90;1.80;;;8.00;99.90;;;;;;5000540;28;20210;-65
2022/03/31 13:56:17;;;;;;;1.98;1.88;;;8.00;99.90;;;;;;4999464;28;20194;-66
2022/03/31 14:01:29;;;;;;;1.50;1.50;;;7.90;99.90;;;;;;4999649;28;20232;-66
2022/03/31 14:03:56;;;;;;;1.80;1.70;;;7.90;99.90;;;;;;5000493;28;20276;-66
2022/03/31 14:06:24;;;;;;;1.30;1.30;;;7.90;99.90;;;;;;5000629;28;20206;-66
2022/03/31 14:08:52;;;;;;;1.42;1.42;;;7.90;99.90;;;;;;4996172;28;20198;-65
2022/03/31 14:11:21;;;;;;;1.52;1.40;;;7.80;99.90;;;;;;4995237;28;20317;-65
2022/03/31 14:13:48;;;;;;;1.40;1.33;;;7.70;99.90;;;;;;4995253;28;20663;-65
2022/03/31 14:16:15;;;;;;;1.33;1.20;;;7.60;99.90;;;;;;4995531;28;20203;-65
2022/03/31 14:18:44;;;;;;;1.48;1.48;;;7.60;99.90;;;;;;4994533;28;20187;-65
2022/03/31 14:21:12;;;;;;;1.40;1.30;;;7.50;99.90;;;;;;4995383;28;20234;-65
2022/03/31 14:23:39;;;;;;;1.70;1.60;;;7.40;99.90;;;;;;4995885;28;20211;-65
2022/03/31 14:26:07;;;;;;;2.55;1.50;;;7.30;99.90;;;;;;4996063;28;20202;-65
2022/03/31 14:28:37;;;;;;;1.60;1.50;;;7.30;99.90;;;;;;4996280;28;20717;-66
2022/03/31 14:31:06;;;;;;;1.48;1.45;;;7.20;99.90;;;;;;4995345;28;20301;-66
2022/03/31 14:33:33;;;;;;;1.45;1.35;;;7.20;99.90;;;;;;4995822;28;20206;-66
2022/03/31 14:36:00;;;;;;;1.48;1.48;;;7.10;99.90;;;;;;4995735;28;20273;-65
2022/03/31 14:38:27;;;;;;;2.45;1.25;;;7.10;99.90;;;;;;4995471;28;20670;-65
2022/03/31 14:40:56;;;;;;;1.30;1.30;;;7.10;99.90;;;;;;4995600;28;20315;-66
2022/03/31 14:43:27;;;;;;;1.08;1.08;;;7.10;99.90;;;;;;4995151;28;20207;-65
2022/03/31 14:45:55;;;;;;;1.50;1.40;;;7.00;99.90;;;;;;4995647;28;20202;-66
2022/03/31 14:48:23;;;;;;;2.35;2.15;;;6.90;99.90;;;;;;4995919;28;20293;-65
2022/03/31 14:50:50;;;;;;;1.65;1.55;;;6.80;99.90;;;;;;4995496;28;20219;-66
2022/03/31 14:53:17;;;;;;;2.17;2.08;;;6.70;99.90;;;;;;4995081;28;20285;-65
2022/03/31 14:55:46;;;;;;;2.15;2.05;;;6.60;99.90;;;;;;4995547;28;20226;-65
2022/03/31 14:58:13;;;;;;;2.42;2.22;;;6.40;99.90;;;;;;4994744;28;20199;-66
2022/03/31 15:00:41;;;;;;;2.40;2.20;;;6.40;99.90;;;;;;4994314;28;20566;-66
2022/03/31 15:03:09;;;;;;;2.67;2.47;;;6.50;99.90;;;;;;4994329;28;20234;-65
2022/03/31 15:05:36;;;;;;;2.10;1.83;;;6.40;99.90;;;;;;4994628;28;20644;-66
2022/03/31 15:08:03;;;;;;;2.10;2.00;;;6.50;99.90;;;;;;4994577;28;20206;-65
2022/03/31 15:16:00;;;;;;;2.03;1.92;;;6.50;99.90;;;;;;4994724;28;20589;-64
2022/03/31 15:18:29;;;;;;;1.85;1.75;;;6.50;99.90;;;;;;4994157;28;20203;-64
2022/03/31 15:20:56;;;;;;;1.40;1.40;;;6.60;99.90;;;;;;4994140;28;20226;-65
2022/03/31 15:23:24;;;;;;;1.92;1.83;;;6.70;99.90;;;;;;4994463;28;20207;-64
2022/03/31 15:25:51;;;;;;;1.20;1.20;;;6.70;99.90;;;;;;4994795;28;20202;-65
2022/03/31 15:28:19;;;;;;;1.33;1.33;;;6.80;99.90;;;;;;4995466;28;20557;-65
2022/03/31 15:30:46;;;;;;;1.40;1.40;;;6.80;99.90;;;;;;4994630;28;20313;-65
2022/03/31 15:33:14;;;;;;;1.13;1.13;;;6.90;99.90;;;;;;4994621;28;20295;-67
2022/03/31 15:35:43;;;;;;;1.25;1.20;;;6.90;99.90;;;;;;4994201;28;20281;-65
2022/03/31 15:38:10;;;;;;;1.10;1.10;;;6.90;99.90;;;;;;4994285;28;20202;-65
2022/03/31 15:40:38;;;;;;;0.90;0.90;;;6.90;99.90;;;;;;4993806;28;20273;-66
2022/03/31 15:43:05;;;;;;;0.90;0.90;;;7.00;99.90;;;;;;4994073;28;20624;-64
2022/03/31 15:45:33;;;;;;;1.10;1.10;;;7.00;99.90;;;;;;4993956;28;20210;-64
2022/03/31 15:48:01;;;;;;;1.13;1.13;;;7.10;99.90;;;;;;4993834;28;20203;-64
2022/03/31 15:50:29;;;;;;;0.80;0.80;;;7.10;99.90;;;;;;4993759;28;20195;-66
2022/03/31 15:52:58;;;;;;;1.00;1.00;;;7.20;99.90;;;;;;4993973;28;20733;-65
2022/03/31 15:55:25;;;;;;;0.80;0.80;;;7.20;99.90;;;;;;4993873;28;20237;-65
2022/03/31 15:57:52;;;;;;;1.23;1.10;;;7.10;99.90;;;;;;4993959;28;20202;-65
2022/03/31 16:00:20;;;;;;;0.95;0.95;;;7.10;99.90;;;;;;4994334;28;20221;-65
2022/03/31 16:02:47;;;;;;;0.70;0.70;;;7.00;99.90;;;;;;4993560;28;20740;-65
2022/03/31 16:05:14;;;;;;;1.00;1.00;;;7.10;99.90;;;;;;4993859;28;20202;-64
2022/03/31 16:07:41;;;;;;;1.02;1.02;;;7.00;99.90;;;;;;4993673;28;20229;-65
2022/03/31 16:10:10;;;;;;;0.93;0.93;;;7.00;99.90;;;;;;4993599;28;20210;-65
2022/03/31 16:12:37;;;;;;;0.80;0.80;;;7.00;99.90;;;;;;4993353;28;20657;-65
2022/03/31 16:15:06;;;;;;;1.02;1.02;;;7.00;99.90;;;;;;4993872;28;20206;-65
2022/03/31 16:17:34;;;;;;;0.93;0.93;;;6.90;99.90;;;;;;4993634;28;20209;-64
2022/03/31 16:20:02;;;;;;;0.90;0.90;;;6.90;99.90;;;;;;4993936;28;20202;-64
2022/03/31 16:22:30;;;;;;;1.10;1.10;;;6.90;99.90;;;;;;4993673;28;20229;-64
2022/03/31 16:24:58;;;;;;;1.25;1.23;;;6.80;99.90;;;;;;4993647;28;20257;-64
2022/03/31 16:27:26;;;;;;;1.10;1.10;;;6.80;99.90;;;;;;4993660;28;20202;-64
2022/03/31 16:29:53;;;;;;;1.10;1.10;;;6.80;99.90;;;;;;4993605;28;20297;-66
2022/03/31 16:32:22;;;;;;;1.10;1.10;;;6.80;99.90;;;;;;4993632;28;20218;-65
2022/03/31 16:34:50;;;;;;;1.05;1.05;;;6.80;99.90;;;;;;4993676;28;20206;-65
2022/03/31 16:37:16;;;;;;;1.23;1.23;;;6.90;99.90;;;;;;4993498;28;20257;-65
2022/03/31 16:39:43;;;;;;;1.00;1.00;;;6.90;99.90;;;;;;4993619;28;20297;-65
2022/03/31 16:42:10;;;;;;;1.20;1.20;;;6.90;99.90;;;;;;4994814;28;20229;-65
2022/03/31 16:44:39;;;;;;;1.35;1.35;;;6.90;99.90;;;;;;4996429;28;20297;-64
2022/03/31 16:47:06;;;;;;;1.23;1.23;;;6.80;99.90;;;;;;4997032;28;20213;-64
2022/03/31 16:49:33;;;;;;;1.40;1.30;;;6.80;99.90;;;;;;4996940;28;20210;-64
2022/03/31 16:51:59;;;;;;;1.25;1.25;;;6.80;99.90;;;;;;4996782;28;20225;-64
2022/03/31 16:54:26;;;;;;;1.30;1.30;;;6.80;99.90;;;;;;4997979;28;20199;-64
2022/03/31 16:56:54;;;;;;;1.05;1.05;;;6.80;99.90;;;;;;4996792;28;20210;-64
2022/03/31 16:59:21;;;;;;;1.10;1.10;;;6.90;99.90;;;;;;4996881;28;20203;-64
2022/03/31 17:01:49;;;;;;;0.90;0.90;;;6.90;99.90;;;;;;4997176;28;20230;-64
2022/03/31 17:04:16;;;;;;;1.05;1.05;;;6.90;99.90;;;;;;4997272;28;20569;-64
2022/03/31 17:06:43;;;;;;;0.90;0.90;;;6.80;99.90;;;;;;4997055;28;20213;-65
2022/03/31 17:09:10;;;;;;;0.90;0.90;;;6.80;99.90;;;;;;4996964;28;20209;-65
2022/03/31 17:11:39;;;;;;;0.80;0.80;;;6.80;99.90;;;;;;4996531;28;20253;-65
2022/03/31 17:14:06;;;;;;;0.93;0.93;;;6.80;99.90;;;;;;4996700;28;20214;-65
2022/03/31 17:16:33;;;;;;;0.88;0.88;;;6.70;99.90;;;;;;4997240;28;20201;-65
2022/03/31 17:19:02;;;;;;;1.00;1.00;;;6.70;99.90;;;;;;4996873;28;20297;-65
2022/03/31 17:21:28;;;;;;;1.02;1.02;;;6.70;99.90;;;;;;4996213;28;20313;-66